Time;durP1;ratioP1;P1;durP2;ratioP2;P2;SDS_P1;SDS_P2;PMS_P1;PMS_P2;Temp;Humidity;BMP_temperature;BMP_pressure;BME280_temperature;BME280_humidity;BME280_pressure;Samples;Min_cycle;Max_cycle;Signal;HPM_P1;HPM_P2
2021/11/30 00:01:07;;;;;;;12.07;8.88;;;;;;;5.80;70.71;99753.72;5031936;28;20502;-64
2021/11/30 00:03:38;;;;;;;11.15;7.45;;;;;;;5.71;70.91;99750.78;5031770;28;20061;-64
2021/11/30 00:06:06;;;;;;;11.52;8.23;;;;;;;5.68;71.14;99766.03;5031721;28;20058;-64
2021/11/30 00:08:34;;;;;;;10.15;8.25;;;;;;;5.68;71.19;99746.69;5031134;28;20080;-64
2021/11/30 00:11:02;;;;;;;18.27;8.55;;;;;;;5.73;70.55;99747.72;5031521;28;20046;-64
2021/11/30 00:13:32;;;;;;;11.15;7.68;;;;;;;5.80;70.29;99748.19;5028241;28;20060;-64
2021/11/30 00:15:59;;;;;;;12.38;7.90;;;;;;;5.85;70.13;99746.16;5015581;28;20054;-64
2021/11/30 00:18:32;;;;;;;13.85;8.68;;;;;;;5.79;70.77;99746.53;5024015;28;20072;-64
2021/11/30 00:21:01;;;;;;;13.40;8.07;;;;;;;5.56;71.00;99746.31;5034947;28;20058;-64
2021/11/30 00:23:29;;;;;;;12.85;8.75;;;;;;;5.84;70.27;99749.22;5035008;28;20057;-64
2021/11/30 00:25:57;;;;;;;12.90;8.75;;;;;;;5.73;70.05;99745.78;5035116;28;20493;-64
2021/11/30 00:28:24;;;;;;;14.52;10.23;;;;;;;5.80;69.93;99742.66;5034258;28;20068;-64
2021/11/30 00:30:51;;;;;;;12.23;9.60;;;;;;;5.73;70.16;99748.53;5034978;28;20060;-64
2021/11/30 00:33:19;;;;;;;12.40;8.57;;;;;;;5.70;70.32;99744.44;5034793;28;20065;-64
2021/11/30 00:35:46;;;;;;;13.13;8.27;;;;;;;5.88;69.88;99745.56;5035100;28;20049;-64
2021/11/30 00:38:16;;;;;;;14.32;8.40;;;;;;;5.70;70.11;99738.09;5034776;28;20049;-64
2021/11/30 00:40:45;;;;;;;14.18;7.50;;;;;;;5.85;69.00;99739.81;5034546;28;20050;-64
2021/11/30 00:43:19;;;;;;;11.90;8.32;;;;;;;5.62;70.26;99741.53;5034143;28;20072;-64
2021/11/30 00:45:52;;;;;;;13.63;7.22;;;;;;;5.71;69.59;99736.97;5034490;28;20390;-64
2021/11/30 00:48:22;;;;;;;14.68;8.88;;;;;;;5.66;69.80;99737.88;5034304;28;20069;-64
2021/11/30 00:50:52;;;;;;;10.82;6.70;;;;;;;5.78;69.13;99742.13;5071960;28;20060;-64
2021/11/30 00:53:21;;;;;;;12.80;7.93;;;;;;;5.52;70.03;99736.97;5074263;28;20045;-64
2021/11/30 00:55:49;;;;;;;15.50;8.10;;;;;;;5.64;69.46;99726.31;5074365;28;20052;-64
2021/11/30 00:58:16;;;;;;;13.80;6.70;;;;;;;5.61;69.22;99729.69;5054249;28;20064;-64
2021/11/30 01:00:44;;;;;;;9.98;6.15;;;;;;;5.27;69.30;99736.25;5053567;28;20425;-64
2021/11/30 01:03:11;;;;;;;13.05;7.32;;;;;;;5.45;69.01;99723.53;5057119;28;20500;-64
2021/11/30 01:05:39;;;;;;;13.18;7.53;;;;;;;5.12;69.92;99725.38;5073498;28;20056;-65
2021/11/30 01:08:06;;;;;;;12.95;7.65;;;;;;;5.13;70.01;99713.25;5073757;28;20048;-64
2021/11/30 01:10:36;;;;;;;15.15;7.45;;;;;;;5.25;69.72;99705.34;5073673;28;20048;-64
2021/11/30 01:13:06;;;;;;;;;;;;;;;5.18;69.50;99695.78;5074335;28;20052;-64
2021/11/30 01:15:33;;;;;;;10.13;5.95;;;;;;;5.24;68.45;99702.88;5074290;28;19924;-64
2021/11/30 01:18:01;;;;;;;10.40;7.43;;;;;;;5.31;69.26;99708.03;5073630;28;20127;-64
2021/11/30 01:20:29;;;;;;;9.73;7.32;;;;;;;5.12;68.96;99705.25;5072773;28;20049;-64
2021/11/30 01:22:56;;;;;;;13.23;7.75;;;;;;;4.94;69.29;99704.94;5073566;28;20056;-65
2021/11/30 01:25:25;;;;;;;13.32;8.07;;;;;;;5.09;69.59;99709.44;5073202;28;20060;-64
2021/11/30 01:27:53;;;;;;;18.35;8.00;;;;;;;5.04;70.10;99715.84;5073936;28;20049;-65
2021/11/30 01:30:21;;;;;;;12.82;7.45;;;;;;;5.14;69.11;99714.06;5073992;28;20055;-64
2021/11/30 01:32:49;;;;;;;12.45;7.75;;;;;;;5.21;68.92;99707.06;5073707;28;20052;-65
2021/11/30 01:35:19;;;;;;;13.88;8.30;;;;;;;5.16;68.58;99715.41;5073128;28;20052;-64
2021/11/30 01:37:47;;;;;;;12.77;7.63;;;;;;;4.92;68.94;99707.19;5073367;28;20493;-64
2021/11/30 01:40:17;;;;;;;13.32;8.13;;;;;;;5.06;68.66;99707.25;5073440;28;20052;-64
2021/11/30 01:42:46;;;;;;;;;;;;;;;4.92;68.64;99711.88;5073587;28;20048;-64
2021/11/30 01:45:22;;;;;;;12.20;7.65;;;;;;;5.08;67.77;99708.63;5071645;28;20439;-64
2021/11/30 01:50:32;;;;;;;11.65;7.30;;;;;;;4.94;68.84;99699.41;5070539;28;20059;-64
2021/11/30 01:53:00;;;;;;;11.35;6.80;;;;;;;4.99;67.51;99701.28;5073271;28;20055;-64
2021/11/30 01:55:31;;;;;;;10.50;6.03;;;;;;;5.05;67.54;99689.06;5072957;28;20059;-64
2021/11/30 01:57:58;;;;;;;14.10;6.65;;;;;;;4.99;67.98;99679.22;5072903;28;20059;-64
2021/11/30 02:00:28;;;;;;;10.50;6.18;;;;;;;4.96;67.21;99671.53;5072508;28;20053;-64
2021/11/30 02:02:56;;;;;;;12.45;6.63;;;;;;;4.71;67.67;99675.44;5072612;28;20052;-64
2021/11/30 02:05:23;;;;;;;8.55;5.03;;;;;;;4.95;66.96;99673.44;5073081;28;20055;-64
2021/11/30 02:07:51;;;;;;;11.20;6.45;;;;;;;5.00;67.43;99664.31;5072753;28;20044;-64
2021/11/30 02:10:19;;;;;;;15.30;6.78;;;;;;;5.00;66.83;99680.88;5072860;28;20056;-64
2021/11/30 02:12:47;;;;;;;9.82;5.82;;;;;;;4.90;66.46;99656.16;5072948;28;20056;-64
2021/11/30 02:15:15;;;;;;;11.95;5.25;;;;;;;4.84;66.09;99658.16;5072365;28;20405;-64
2021/11/30 02:17:44;;;;;;;9.23;4.80;;;;;;;4.80;65.61;99635.03;5072227;28;20060;-64
2021/11/30 02:20:16;;;;;;;9.07;4.63;;;;;;;4.59;65.53;99626.22;5072588;28;20048;-64
2021/11/30 02:22:49;;;;;;;11.77;6.13;;;;;;;4.63;66.00;99625.31;5068126;28;20044;-64
2021/11/30 02:25:16;;;;;;;11.18;5.47;;;;;;;4.64;65.68;99617.84;5053218;28;20064;-64
2021/11/30 02:27:44;;;;;;;8.85;4.80;;;;;;;4.69;64.93;99620.56;5058634;28;20485;-64
2021/11/30 02:30:12;;;;;;;8.65;4.93;;;;;;;4.65;65.03;99619.50;5072931;28;20436;-64
2021/11/30 02:32:40;;;;;;;9.45;5.28;;;;;;;4.79;64.57;99611.34;5072684;28;20056;-64
2021/11/30 02:35:07;;;;;;;10.05;5.03;;;;;;;4.67;64.62;99617.28;5072360;28;20048;-64
2021/11/30 02:37:42;;;;;;;11.50;6.10;;;;;;;4.54;65.62;99615.25;5072064;28;20045;-64
2021/11/30 02:40:10;;;;;;;11.45;5.57;;;;;;;4.42;66.76;99627.50;5072761;28;20052;-64
2021/11/30 02:42:38;;;;;;;9.75;4.85;;;;;;;4.47;67.13;99612.84;5072962;28;20044;-64
2021/11/30 02:45:06;;;;;;;9.57;5.05;;;;;;;4.56;67.17;99635.09;5061943;28;20469;-64
2021/11/30 02:47:33;;;;;;;9.77;5.47;;;;;;;4.54;67.89;99590.44;5071003;28;20048;-64
2021/11/30 02:50:01;;;;;;;8.80;3.90;;;;;;;4.40;67.85;99573.78;5066525;28;20045;-64
2021/11/30 02:52:29;;;;;;;12.93;5.68;;;;;;;4.40;68.72;99596.66;5057186;28;20063;-63
2021/11/30 02:54:58;;;;;;;9.35;5.25;;;;;;;4.21;69.42;99565.47;5072678;28;20052;-63
2021/11/30 02:57:26;;;;;;;13.13;6.75;;;;;;;4.14;69.77;99559.53;5071206;28;20052;-63
2021/11/30 02:59:55;;;;;;;9.45;4.18;;;;;;;3.92;70.67;99551.78;5071886;28;20049;-64
2021/11/30 03:02:23;;;;;;;13.57;5.77;;;;;;;3.87;72.34;99544.38;5072060;28;20051;-64
2021/11/30 03:04:52;;;;;;;10.10;6.22;;;;;;;3.71;73.52;99546.47;5059254;28;20513;-64
2021/11/30 03:07:22;;;;;;;7.00;4.15;;;;;;;3.74;72.54;99539.56;5051994;28;20053;-64
2021/11/30 03:09:50;;;;;;;12.68;4.93;;;;;;;3.98;72.50;99554.16;5051983;28;20053;-64
2021/11/30 03:12:19;;;;;;;10.52;5.55;;;;;;;3.90;73.80;99526.44;5052037;28;20394;-63
2021/11/30 03:14:46;;;;;;;10.05;4.78;;;;;;;3.78;74.32;99535.09;5064381;28;20053;-62
2021/11/30 03:17:14;;;;;;;13.60;6.32;;;;;;;3.71;75.18;99518.13;5071906;28;20080;-63
2021/11/30 03:19:41;;;;;;;10.75;6.03;;;;;;;3.80;74.83;99510.84;5072171;28;20055;-62
2021/11/30 03:22:10;;;;;;;9.60;5.03;;;;;;;3.73;75.54;99497.44;5072066;28;20070;-62
2021/11/30 03:24:37;;;;;;;8.85;4.25;;;;;;;3.52;76.60;99507.03;5071705;28;20053;-63
2021/11/30 03:27:05;;;;;;;10.57;5.15;;;;;;;3.54;77.93;99480.03;5071568;28;20048;-64
2021/11/30 03:29:34;;;;;;;14.95;6.72;;;;;;;3.58;77.92;99470.91;5070938;28;20405;-64
2021/11/30 03:32:07;;;;;;;12.30;6.65;;;;;;;3.49;78.13;99467.16;5071646;28;20075;-64
2021/11/30 03:34:36;;;;;;;10.45;5.50;;;;;;;3.50;78.00;99467.97;5071786;28;20057;-64
2021/11/30 03:37:06;;;;;;;11.25;6.13;;;;;;;3.41;78.49;99454.03;5072043;28;20067;-64
2021/11/30 03:39:34;;;;;;;10.32;5.57;;;;;;;3.44;79.82;99447.91;5071589;28;20127;-64
2021/11/30 03:42:02;;;;;;;9.60;5.07;;;;;;;3.41;78.48;99443.00;5071808;28;20071;-64
2021/11/30 03:44:30;;;;;;;8.88;5.45;;;;;;;3.50;78.77;99445.94;5071386;28;20405;-64
2021/11/30 03:46:59;;;;;;;12.75;7.75;;;;;;;3.53;79.18;99439.84;5071298;28;20063;-64
2021/11/30 03:49:28;;;;;;;10.30;6.83;;;;;;;3.42;78.96;99441.88;5073298;28;20052;-64
2021/11/30 03:51:55;;;;;;;6.43;3.72;;;;;;;3.19;78.76;99433.34;5058052;28;20053;-64
2021/11/30 03:54:23;;;;;;;12.13;6.40;;;;;;;3.36;79.29;99432.88;5055512;28;20056;-64
2021/11/30 03:56:51;;;;;;;12.57;7.05;;;;;;;3.33;80.08;99430.69;5063501;28;20092;-64
2021/11/30 03:59:18;;;;;;;7.65;4.05;;;;;;;3.40;79.70;99420.19;5075390;28;20056;-64
2021/11/30 04:01:45;;;;;;;10.57;7.65;;;;;;;3.42;79.64;99414.38;5071088;28;20410;-64
2021/11/30 04:04:20;;;;;;;9.07;5.90;;;;;;;3.32;80.12;99400.72;5068343;28;20059;-64
2021/11/30 04:06:49;;;;;;;7.90;5.70;;;;;;;3.15;80.42;99410.28;5055291;28;20045;-64
2021/11/30 04:09:17;;;;;;;9.98;6.68;;;;;;;3.41;80.15;99402.53;5061707;28;20075;-64
2021/11/30 04:11:45;;;;;;;9.05;5.70;;;;;;;3.39;79.71;99399.25;5075074;28;20048;-64
2021/11/30 04:14:12;;;;;;;8.88;4.57;;;;;;;3.53;79.07;99388.38;5074604;28;20041;-65
2021/11/30 04:16:42;;;;;;;7.55;4.00;;;;;;;3.56;79.90;99401.53;5075239;28;20049;-65
2021/11/30 04:19:10;;;;;;;5.75;4.13;;;;;;;3.30;80.04;99395.53;5074995;28;20056;-65
2021/11/30 04:21:38;;;;;;;4.80;3.60;;;;;;;3.42;79.90;99422.63;5066663;28;20049;-65
2021/11/30 04:24:06;;;;;;;6.10;3.92;;;;;;;3.44;80.45;99382.69;5054870;28;20064;-64
2021/11/30 04:26:36;;;;;;;5.50;3.75;;;;;;;3.40;80.40;99386.31;5067515;28;20063;-64
2021/11/30 04:29:04;;;;;;;4.22;2.88;;;;;;;3.52;80.28;99378.47;5054786;28;20060;-64
2021/11/30 04:31:32;;;;;;;5.53;3.67;;;;;;;3.36;81.17;99374.25;5067076;28;20041;-64
2021/11/30 04:34:00;;;;;;;5.30;3.78;;;;;;;3.53;80.36;99373.75;5070391;28;20485;-64
2021/11/30 04:36:30;;;;;;;9.52;3.80;;;;;;;3.54;81.16;99367.16;5075001;28;20058;-64
2021/11/30 04:38:59;;;;;;;3.40;2.13;;;;;;;3.45;81.14;99358.75;5074637;28;20052;-64
2021/11/30 04:41:26;;;;;;;2.42;1.67;;;;;;;3.51;80.48;99356.72;5074759;28;20055;-64
2021/11/30 04:43:55;;;;;;;11.50;2.92;;;;;;;3.39;80.73;99357.16;5074441;28;20497;-64
2021/11/30 04:46:25;;;;;;;3.00;2.08;;;;;;;3.41;81.71;99361.25;5074290;28;20417;-64
2021/11/30 04:48:56;;;;;;;3.25;2.40;;;;;;;3.59;82.42;99345.91;5073791;28;20048;-64
2021/11/30 04:51:24;;;;;;;4.45;3.13;;;;;;;3.62;81.53;99352.72;5074207;28;20437;-64
2021/11/30 04:53:53;;;;;;;4.35;2.60;;;;;;;3.48;81.58;99349.88;5074016;28;20044;-64
2021/11/30 04:56:22;;;;;;;3.03;2.17;;;;;;;3.73;80.89;99342.41;5074432;28;20505;-64
2021/11/30 04:58:49;;;;;;;2.50;1.30;;;;;;;3.72;80.87;99336.06;5074286;28;20048;-64
2021/11/30 05:01:18;;;;;;;2.38;1.42;;;;;;;3.47;81.08;99348.25;5073611;28;20060;-64
2021/11/30 05:03:46;;;;;;;3.03;1.60;;;;;;;3.61;81.03;99335.41;5073601;28;20049;-64
2021/11/30 05:06:13;;;;;;;10.23;1.45;;;;;;;3.66;80.41;99331.75;5073496;28;20493;-64
2021/11/30 05:08:41;;;;;;;2.88;1.60;;;;;;;3.66;81.55;99327.06;5073451;28;20052;-65
2021/11/30 05:11:09;;;;;;;1.90;1.40;;;;;;;3.58;82.51;99333.22;5074268;28;20052;-64
2021/11/30 05:13:38;;;;;;;2.13;1.48;;;;;;;3.69;82.18;99319.31;5073682;28;20056;-64
2021/11/30 05:16:06;;;;;;;2.03;1.27;;;;;;;3.77;82.00;99333.25;5065943;28;20060;-64
2021/11/30 05:18:33;;;;;;;1.83;1.10;;;;;;;3.70;82.28;99323.72;5069633;28;20056;-64
2021/11/30 05:21:00;;;;;;;3.63;1.73;;;;;;;3.92;82.02;99321.16;5070965;28;20048;-64
2021/11/30 05:23:29;;;;;;;2.45;1.48;;;;;;;3.90;81.91;99309.63;5064642;28;20426;-64
2021/11/30 05:25:59;;;;;;;2.00;1.30;;;;;;;3.78;83.03;99320.28;5073942;28;20060;-64
2021/11/30 05:28:27;;;;;;;1.80;1.35;;;;;;;3.97;82.71;99307.34;5073365;28;20060;-64
2021/11/30 05:30:56;;;;;;;3.40;1.65;;;;;;;3.89;83.04;99293.44;5073566;28;20063;-64
2021/11/30 05:33:23;;;;;;;1.80;1.00;;;;;;;4.06;82.96;99304.72;5072931;28;20493;-65
2021/11/30 05:35:51;;;;;;;2.75;1.42;;;;;;;4.15;82.93;99285.56;5073698;28;20056;-65
2021/11/30 05:38:18;;;;;;;2.38;1.63;;;;;;;4.13;83.28;99288.59;5073216;28;20048;-65
2021/11/30 05:40:47;;;;;;;2.25;1.63;;;;;;;4.01;84.55;99289.09;5070557;28;20501;-65
2021/11/30 05:43:14;;;;;;;2.40;1.70;;;;;;;4.32;83.10;99290.50;5055243;28;20056;-65
2021/11/30 05:45:41;;;;;;;1.80;1.33;;;;;;;4.10;83.75;99291.16;5054884;28;20044;-65
2021/11/30 05:48:10;;;;;;;2.20;1.70;;;;;;;4.20;83.74;99282.69;5064426;28;20056;-65
2021/11/30 05:50:38;;;;;;;1.75;1.08;;;;;;;4.27;83.25;99302.44;5067962;28;20052;-65
2021/11/30 05:53:06;;;;;;;1.80;1.10;;;;;;;4.22;83.32;99274.94;5073271;28;20064;-66
2021/11/30 05:55:34;;;;;;;2.30;1.65;;;;;;;4.20;83.91;99282.69;5072705;28;20049;-65
2021/11/30 05:58:02;;;;;;;3.40;1.90;;;;;;;4.21;84.36;99279.66;5072742;28;20064;-65
2021/11/30 06:00:30;;;;;;;2.17;1.52;;;;;;;4.41;83.78;99278.50;5073806;28;20385;-65
2021/11/30 06:03:03;;;;;;;3.45;1.98;;;;;;;4.45;83.13;99270.41;5073533;28;20051;-65
2021/11/30 06:05:33;;;;;;;2.08;1.50;;;;;;;4.50;83.94;99281.38;5073286;28;20056;-65
2021/11/30 06:08:03;;;;;;;2.38;1.65;;;;;;;4.48;83.70;99278.91;5073166;28;20052;-65
2021/11/30 06:10:30;;;;;;;2.25;1.48;;;;;;;4.44;84.47;99282.59;5072132;28;20051;-65
2021/11/30 06:12:58;;;;;;;3.65;2.28;;;;;;;4.56;84.32;99268.31;5071265;28;20056;-65
2021/11/30 06:15:25;;;;;;;2.33;1.60;;;;;;;4.54;84.11;99259.53;5072948;28;20052;-66
2021/11/30 06:17:52;;;;;;;2.83;2.00;;;;;;;4.67;84.62;99254.00;5072610;28;20481;-66
2021/11/30 06:20:21;;;;;;;4.82;2.10;;;;;;;4.68;84.27;99265.84;5072789;28;20056;-65
2021/11/30 06:22:50;;;;;;;2.67;2.05;;;;;;;4.63;84.61;99258.50;5071839;28;20064;-65
2021/11/30 06:25:17;;;;;;;2.47;1.75;;;;;;;4.78;84.04;99254.63;5071600;28;20059;-65
2021/11/30 06:27:46;;;;;;;2.72;1.88;;;;;;;4.74;84.72;99250.84;5072089;28;20060;-65
2021/11/30 06:30:14;;;;;;;3.95;2.10;;;;;;;4.85;84.16;99240.41;5071959;28;20052;-65
2021/11/30 06:32:42;;;;;;;3.40;1.98;;;;;;;4.83;84.81;99251.78;5072183;28;20052;-66
2021/11/30 06:35:09;;;;;;;5.00;2.70;;;;;;;5.00;84.13;99251.16;5072778;28;20485;-66
2021/11/30 06:37:39;;;;;;;3.05;1.98;;;;;;;4.95;84.42;99251.25;5072222;28;20060;-65
2021/11/30 06:40:09;;;;;;;4.70;2.30;;;;;;;5.03;84.52;99238.69;5071444;28;20482;-65
2021/11/30 06:42:36;;;;;;;;;;;;;;;5.04;84.63;99243.06;5072313;28;20074;-65
2021/11/30 06:45:04;;;;;;;3.15;1.80;;;;;;;5.08;84.50;99241.31;5066562;28;19921;-65
2021/11/30 06:47:32;;;;;;;4.22;2.55;;;;;;;5.12;84.52;99242.34;5066485;28;20394;-65
2021/11/30 06:50:00;;;;;;;3.97;2.50;;;;;;;5.15;85.03;99240.94;5071350;28;20048;-65
2021/11/30 06:52:27;;;;;;;4.65;2.88;;;;;;;5.19;85.20;99225.41;5055481;28;20048;-64
2021/11/30 06:54:55;;;;;;;3.22;2.25;;;;;;;5.24;84.69;99228.84;5070968;28;20053;-64
2021/11/30 06:57:24;;;;;;;4.70;2.90;;;;;;;5.32;84.90;99232.00;5070502;28;20056;-65
2021/11/30 06:59:52;;;;;;;3.72;2.78;;;;;;;5.38;84.84;99241.81;5062983;28;20053;-65
2021/11/30 07:02:21;;;;;;;2.17;1.40;;;;;;;5.43;84.60;99225.94;5071208;28;20049;-65
2021/11/30 07:04:52;;;;;;;4.97;2.77;;;;;;;5.58;84.23;99215.66;5063906;28;20056;-64
2021/11/30 07:07:26;;;;;;;3.67;2.83;;;;;;;5.62;84.89;99230.50;5071966;28;20827;-64
2021/11/30 07:10:09;;;;;;;4.57;3.20;;;;;;;5.70;84.51;99208.44;5071486;28;20045;-64
2021/11/30 07:12:54;;;;;;;3.65;2.67;;;;;;;5.62;85.11;99205.63;5070697;28;20045;-64
2021/11/30 07:15:23;;;;;;;5.00;2.60;;;;;;;5.72;84.28;99210.91;5067764;28;20044;-64
2021/11/30 07:17:51;;;;;;;2.88;1.90;;;;;;;5.83;84.25;99212.28;5069861;28;20056;-65
2021/11/30 07:20:18;;;;;;;2.40;1.77;;;;;;;5.61;85.03;99210.34;5065982;28;20049;-65
2021/11/30 07:22:46;;;;;;;3.33;2.42;;;;;;;5.75;85.13;99207.50;5072118;28;20497;-65
2021/11/30 07:25:13;;;;;;;4.15;2.72;;;;;;;5.88;84.79;99205.84;5075679;28;20075;-65
2021/11/30 07:27:42;;;;;;;4.68;2.60;;;;;;;5.89;84.95;99199.16;5076004;28;20501;-64
2021/11/30 07:30:09;;;;;;;5.22;2.10;;;;;;;5.70;85.87;99210.41;5075276;28;20049;-65
2021/11/30 07:32:36;;;;;;;5.13;2.65;;;;;;;6.00;85.35;99203.31;5075067;28;20056;-64
2021/11/30 07:35:06;;;;;;;2.97;2.10;;;;;;;5.99;84.65;99209.19;5075760;28;20516;-64
2021/11/30 07:37:33;;;;;;;4.53;2.50;;;;;;;6.00;85.34;99200.56;5070562;28;20063;-64
2021/11/30 07:40:00;;;;;;;3.20;2.50;;;;;;;6.19;84.65;99192.06;5070445;28;20052;-64
2021/11/30 07:42:30;;;;;;;3.28;2.33;;;;;;;6.28;84.68;99201.22;5064693;28;20406;-64
2021/11/30 07:44:59;;;;;;;;;;;;;;;6.26;84.85;99202.69;5056079;28;20053;-64
2021/11/30 07:47:27;;;;;;;3.08;2.10;;;;;;;6.02;84.50;99212.13;5073579;28;19920;-64
2021/11/30 07:49:55;;;;;;;2.72;2.00;;;;;;;6.34;85.03;99209.38;5074763;28;20424;-61
2021/11/30 07:52:22;;;;;;;4.43;2.15;;;;;;;6.27;84.35;99220.91;5071453;28;20476;-60
2021/11/30 07:54:51;;;;;;;3.08;2.30;;;;;;;6.29;84.94;99202.84;5060172;28;20076;-60
2021/11/30 07:57:19;;;;;;;3.25;2.53;;;;;;;6.28;85.94;99205.97;5068937;28;20063;-60
2021/11/30 07:59:46;;;;;;;9.43;6.07;;;;;;;6.49;84.55;99209.00;5061504;28;20053;-60
2021/11/30 08:02:14;;;;;;;5.13;2.53;;;;;;;6.61;84.64;99202.84;5066834;28;20520;-60
2021/11/30 08:04:42;;;;;;;10.90;5.13;;;;;;;6.55;84.89;99206.88;5059309;28;20057;-60
2021/11/30 08:07:09;;;;;;;11.02;4.45;;;;;;;6.50;84.52;99216.94;5063778;28;20052;-60
2021/11/30 08:09:37;;;;;;;8.00;4.45;;;;;;;6.79;83.95;99212.03;5060659;28;20531;-60
2021/11/30 08:12:05;;;;;;;9.23;5.97;;;;;;;6.70;84.96;99206.47;5070784;28;20410;-60
2021/11/30 08:14:32;;;;;;;9.80;5.55;;;;;;;6.77;84.25;99206.81;5066759;28;20056;-60
2021/11/30 08:16:59;;;;;;;8.25;4.78;;;;;;;6.80;84.29;99206.16;5073554;28;20056;-60
2021/11/30 08:19:28;;;;;;;15.02;8.23;;;;;;;6.81;84.74;99202.28;5072242;28;20065;-60
2021/11/30 08:21:56;;;;;;;6.65;4.20;;;;;;;6.72;84.83;99206.97;5072783;28;20052;-60
2021/11/30 08:24:24;;;;;;;4.13;2.60;;;;;;;6.69;85.59;99199.28;5069077;28;20057;-60
2021/11/30 08:26:54;;;;;;;9.27;4.75;;;;;;;6.70;85.78;99195.41;5072791;28;20055;-60
2021/11/30 08:29:22;;;;;;;4.28;2.72;;;;;;;6.90;85.44;99202.28;5067938;28;20056;-60
2021/11/30 08:31:49;;;;;;;4.50;2.88;;;;;;;6.90;85.53;99199.53;5072730;28;20485;-59
2021/11/30 08:34:17;;;;;;;3.58;2.50;;;;;;;6.88;85.18;99185.19;5072165;28;20044;-59
2021/11/30 08:36:45;;;;;;;5.30;3.20;;;;;;;6.88;85.71;99190.72;5072672;28;20063;-59
2021/11/30 08:39:13;;;;;;;5.28;2.63;;;;;;;6.83;85.89;99185.34;5058040;28;20056;-60
2021/11/30 08:41:40;;;;;;;4.38;3.17;;;;;;;6.87;85.61;99173.31;5065939;28;20520;-60
2021/11/30 08:44:08;;;;;;;5.03;2.65;;;;;;;6.96;85.62;99180.81;5071758;28;20052;-60
2021/11/30 08:46:35;;;;;;;4.60;2.58;;;;;;;7.12;85.47;99184.78;5072532;28;20044;-59
2021/11/30 08:49:02;;;;;;;4.25;3.20;;;;;;;6.85;87.37;99181.13;5072328;28;20056;-59
2021/11/30 08:51:30;;;;;;;7.85;3.05;;;;;;;7.09;86.38;99179.88;5071741;28;20048;-58
2021/11/30 08:53:59;;;;;;;4.90;3.33;;;;;;;7.16;87.65;99185.75;5072682;28;20059;-59
2021/11/30 08:56:26;;;;;;;2.45;1.73;;;;;;;7.00;87.32;99182.63;5070867;28;20104;-59
2021/11/30 08:58:53;;;;;;;4.13;2.63;;;;;;;7.18;86.60;99177.09;5070607;28;20056;-59
2021/11/30 09:01:21;;;;;;;7.75;3.40;;;;;;;7.17;87.43;99175.50;5068131;28;20053;-59
2021/11/30 09:03:48;;;;;;;4.85;3.28;;;;;;;7.12;87.64;99173.69;5076632;28;20052;-59
2021/11/30 09:06:16;;;;;;;7.93;2.88;;;;;;;7.02;88.36;99174.00;5078844;28;20055;-59
2021/11/30 09:08:43;;;;;;;7.57;3.40;;;;;;;7.15;88.93;99178.56;5072730;28;20068;-59
2021/11/30 09:11:12;;;;;;;5.55;3.10;;;;;;;7.28;88.35;99166.53;5078655;28;20428;-59
2021/11/30 09:13:39;;;;;;;6.18;3.30;;;;;;;7.13;89.23;99164.22;5074668;28;20056;-59
2021/11/30 09:16:06;;;;;;;3.53;2.88;;;;;;;7.22;88.10;99180.84;5076172;28;20055;-58
2021/11/30 09:18:34;;;;;;;4.35;2.80;;;;;;;7.41;87.55;99180.53;5073331;28;20492;-59
2021/11/30 09:21:02;;;;;;;3.92;2.85;;;;;;;7.41;87.20;99170.31;5075638;28;20049;-59
2021/11/30 09:23:29;;;;;;;3.35;2.47;;;;;;;7.29;88.18;99175.66;5073537;28;20059;-59
2021/11/30 09:25:57;;;;;;;6.10;2.88;;;;;;;7.39;87.40;99158.75;5074952;28;20055;-59
2021/11/30 09:28:26;;;;;;;3.28;2.63;;;;;;;7.37;87.12;99161.00;5084037;28;20053;-59
2021/11/30 09:30:54;;;;;;;5.50;3.13;;;;;;;7.56;86.47;99171.78;5073217;28;20044;-59
2021/11/30 09:33:22;;;;;;;7.60;3.15;;;;;;;7.66;86.42;99167.84;5070192;28;20063;-59
2021/11/30 09:35:49;;;;;;;11.48;3.50;;;;;;;7.69;87.04;99176.31;5072444;28;20104;-59
2021/11/30 09:38:17;;;;;;;3.22;2.15;;;;;;;7.68;87.18;99176.63;5073290;28;20049;-59
2021/11/30 09:40:45;;;;;;;3.72;2.83;;;;;;;7.83;86.18;99159.53;5085771;28;20067;-59
2021/11/30 09:43:13;;;;;;;4.10;3.00;;;;;;;7.83;86.67;99164.22;5071216;28;20413;-59
2021/11/30 09:45:42;;;;;;;6.13;3.20;;;;;;;7.95;86.15;99158.84;5058509;28;20052;-59
2021/11/30 09:48:11;;;;;;;4.30;3.33;;;;;;;7.86;86.33;99158.84;5069850;28;20410;-59
2021/11/30 09:50:41;;;;;;;3.70;2.33;;;;;;;7.99;86.34;99157.03;5071346;28;20065;-58
2021/11/30 09:53:09;;;;;;;4.00;2.95;;;;;;;8.04;86.18;99153.25;5071608;28;20048;-59
2021/11/30 09:55:39;;;;;;;5.13;3.00;;;;;;;8.19;85.30;99141.66;5070423;28;20524;-59
2021/11/30 09:58:07;;;;;;;5.45;3.00;;;;;;;8.16;85.02;99149.81;5070527;28;20056;-59
2021/11/30 10:00:35;;;;;;;5.30;3.47;;;;;;;8.26;85.13;99141.94;5071428;28;20059;-59
2021/11/30 10:03:03;;;;;;;4.68;2.67;;;;;;;8.25;85.83;99153.38;5070662;28;20056;-59
2021/11/30 10:05:32;;;;;;;3.88;3.03;;;;;;;8.12;85.33;99144.91;5071824;28;20489;-59
2021/11/30 10:08:01;;;;;;;2.38;1.77;;;;;;;8.22;84.98;99151.28;5071156;28;20056;-59
2021/11/30 10:10:30;;;;;;;5.03;2.83;;;;;;;8.18;84.69;99142.78;5071347;28;20492;-59
2021/11/30 10:13:11;;;;;;;4.20;2.65;;;;;;;8.43;85.24;99135.53;5071157;28;20051;-59
2021/11/30 10:15:59;;;;;;;3.20;2.22;;;;;;;8.18;84.47;99153.88;5070089;28;20048;-59
2021/11/30 10:18:31;;;;;;;4.40;3.25;;;;;;;8.47;85.49;99152.34;5060282;28;20048;-59
2021/11/30 10:21:19;;;;;;;3.65;2.72;;;;;;;8.52;84.08;99149.38;5069717;28;20048;-59
2021/11/30 10:23:48;;;;;;;4.68;3.22;;;;;;;8.37;85.79;99153.50;5070869;28;20059;-60
2021/11/30 10:26:18;;;;;;;7.55;3.72;;;;;;;8.43;86.10;99149.41;5071428;28;20049;-59
2021/11/30 10:28:55;;;;;;;5.43;3.13;;;;;;;8.36;86.09;99148.25;5068427;28;20482;-60
2021/11/30 10:31:24;;;;;;;3.55;2.85;;;;;;;8.42;85.26;99138.66;5069458;28;20044;-60
2021/11/30 10:33:53;;;;;;;4.68;2.90;;;;;;;8.55;85.32;99134.84;5062426;28;20052;-60
2021/11/30 10:36:21;;;;;;;4.85;3.80;;;;;;;8.63;85.36;99130.38;5070982;28;20052;-60
2021/11/30 10:38:48;;;;;;;5.72;2.45;;;;;;;8.44;86.06;99137.19;5062167;28;20057;-60
2021/11/30 10:41:18;;;;;;;3.58;2.60;;;;;;;8.71;85.62;99137.84;5068412;28;20056;-60
2021/11/30 10:43:53;;;;;;;4.32;3.20;;;;;;;8.63;85.25;99144.25;5065085;28;20056;-59
2021/11/30 10:46:26;;;;;;;8.57;2.58;;;;;;;8.75;84.69;99127.72;5068714;28;20053;-60
2021/11/30 10:48:56;;;;;;;3.83;2.45;;;;;;;8.74;85.85;99134.44;5068275;28;20060;-59
2021/11/30 10:51:24;;;;;;;3.33;2.40;;;;;;;8.83;84.66;99123.25;5065862;28;20060;-60
2021/11/30 10:53:58;;;;;;;3.78;2.47;;;;;;;8.82;85.35;99133.56;5068260;28;20048;-59
2021/11/30 10:56:26;;;;;;;5.07;2.08;;;;;;;8.89;84.01;99125.50;5070635;28;20045;-59
2021/11/30 10:58:55;;;;;;;5.07;2.22;;;;;;;8.81;84.95;99128.34;5069327;28;20495;-59
2021/11/30 11:01:26;;;;;;;2.90;2.00;;;;;;;9.02;84.92;99122.81;5050852;28;20115;-59
2021/11/30 11:04:12;;;;;;;4.05;1.67;;;;;;;9.11;84.09;99138.28;5068769;28;20052;-59
2021/11/30 11:06:39;;;;;;;3.38;2.20;;;;;;;9.06;84.53;99132.91;5071210;28;20083;-59
2021/11/30 11:09:09;;;;;;;3.83;2.17;;;;;;;8.87;84.33;99124.22;5070541;28;20052;-59
2021/11/30 11:11:40;;;;;;;2.75;1.85;;;;;;;8.88;85.25;99125.84;5070840;28;20052;-59
2021/11/30 11:14:20;;;;;;;3.10;2.08;;;;;;;9.06;85.16;99123.78;5067444;28;20057;-59
2021/11/30 11:16:49;;;;;;;;;;;;;;;9.00;84.67;99117.59;5058467;28;20045;-59
2021/11/30 11:19:19;;;;;;;3.38;2.35;;;;;;;9.08;85.48;99129.81;5063312;28;20281;-59
2021/11/30 11:21:47;;;;;;;3.38;2.42;;;;;;;9.23;85.21;99125.59;5058549;28;20052;-59
2021/11/30 11:24:17;;;;;;;6.50;2.13;;;;;;;9.11;85.53;99140.22;5059655;28;20045;-59
2021/11/30 11:26:45;;;;;;;;;;;;;;;9.10;84.24;99138.63;5068062;28;20075;-58
2021/11/30 11:29:15;;;;;;;2.65;1.90;;;;;;;9.31;84.86;99158.88;5062971;28;19927;-59
2021/11/30 11:31:46;;;;;;;3.05;2.13;;;;;;;9.45;85.04;99168.91;5064967;28;20053;-59
2021/11/30 11:34:15;;;;;;;2.90;2.03;;;;;;;9.33;85.06;99159.34;5057899;28;20055;-59
2021/11/30 11:36:47;;;;;;;;;;;;;;;9.21;84.08;99156.50;5051932;28;20045;-59
2021/11/30 11:39:18;;;;;;;9.73;2.80;;;;;;;9.31;85.01;99155.28;5055579;28;19927;-59
2021/11/30 11:41:48;;;;;;;2.80;2.10;;;;;;;9.47;84.93;99174.94;5064047;28;20045;-60
2021/11/30 11:44:16;;;;;;;3.17;2.50;;;;;;;9.55;84.89;99187.97;5059326;28;20056;-60
2021/11/30 11:46:44;;;;;;;3.03;2.22;;;;;;;9.60;85.49;99189.75;5062035;28;20406;-60
2021/11/30 11:49:13;;;;;;;4.63;2.38;;;;;;;9.67;84.77;99201.94;5068661;28;20493;-60
2021/11/30 11:51:45;;;;;;;2.83;2.20;;;;;;;9.75;84.16;99209.38;5060312;28;20063;-60